sensor_id;sensor_type;location;lat;lon;timestamp;P1;durP1;ratioP1;P2;durP2;ratioP2
23402;SDS011;11874;48.228;11.684;2022-11-20T00:00:54;5.63;;;2.80;;
23402;SDS011;11874;48.228;11.684;2022-11-20T00:03:22;2.75;;;2.42;;
23402;SDS011;11874;48.228;11.684;2022-11-20T00:05:50;4.82;;;2.45;;
23402;SDS011;11874;48.228;11.684;2022-11-20T00:08:18;3.45;;;2.30;;
23402;SDS011;11874;48.228;11.684;2022-11-20T00:10:45;2.90;;;2.40;;
23402;SDS011;11874;48.228;11.684;2022-11-20T00:13:15;3.60;;;2.38;;
23402;SDS011;11874;48.228;11.684;2022-11-20T00:15:42;3.03;;;2.28;;
23402;SDS011;11874;48.228;11.684;2022-11-20T00:18:10;3.33;;;2.42;;
23402;SDS011;11874;48.228;11.684;2022-11-20T00:20:38;4.22;;;2.72;;
23402;SDS011;11874;48.228;11.684;2022-11-20T00:23:06;3.28;;;2.53;;
23402;SDS011;11874;48.228;11.684;2022-11-20T00:25:34;2.85;;;2.13;;
23402;SDS011;11874;48.228;11.684;2022-11-20T00:28:02;4.57;;;2.67;;
23402;SDS011;11874;48.228;11.684;2022-11-20T00:30:31;3.13;;;2.30;;
23402;SDS011;11874;48.228;11.684;2022-11-20T00:32:59;3.53;;;2.65;;
23402;SDS011;11874;48.228;11.684;2022-11-20T00:35:27;3.42;;;2.10;;
23402;SDS011;11874;48.228;11.684;2022-11-20T00:37:54;3.17;;;2.40;;
23402;SDS011;11874;48.228;11.684;2022-11-20T00:40:22;4.07;;;2.38;;
23402;SDS011;11874;48.228;11.684;2022-11-20T00:42:50;6.05;;;2.45;;
23402;SDS011;11874;48.228;11.684;2022-11-20T00:45:18;3.42;;;2.55;;
23402;SDS011;11874;48.228;11.684;2022-11-20T00:47:47;3.25;;;2.20;;
23402;SDS011;11874;48.228;11.684;2022-11-20T00:50:15;3.63;;;2.63;;
23402;SDS011;11874;48.228;11.684;2022-11-20T00:52:43;2.78;;;2.25;;
23402;SDS011;11874;48.228;11.684;2022-11-20T00:55:11;3.38;;;2.67;;
23402;SDS011;11874;48.228;11.684;2022-11-20T00:57:38;3.65;;;2.85;;
23402;SDS011;11874;48.228;11.684;2022-11-20T01:00:07;3.15;;;2.42;;
23402;SDS011;11874;48.228;11.684;2022-11-20T01:02:35;3.13;;;2.55;;
23402;SDS011;11874;48.228;11.684;2022-11-20T01:05:05;2.38;;;2.17;;
23402;SDS011;11874;48.228;11.684;2022-11-20T01:07:33;3.88;;;2.40;;
23402;SDS011;11874;48.228;11.684;2022-11-20T01:10:01;3.58;;;2.60;;
23402;SDS011;11874;48.228;11.684;2022-11-20T01:12:28;4.22;;;2.70;;
23402;SDS011;11874;48.228;11.684;2022-11-20T01:14:56;3.42;;;2.30;;
23402;SDS011;11874;48.228;11.684;2022-11-20T01:17:24;5.43;;;2.72;;
23402;SDS011;11874;48.228;11.684;2022-11-20T01:19:52;4.03;;;2.58;;
23402;SDS011;11874;48.228;11.684;2022-11-20T01:22:21;4.63;;;2.60;;
23402;SDS011;11874;48.228;11.684;2022-11-20T01:24:49;3.25;;;2.72;;
23402;SDS011;11874;48.228;11.684;2022-11-20T01:27:17;4.13;;;2.97;;
23402;SDS011;11874;48.228;11.684;2022-11-20T01:29:45;4.43;;;2.42;;
23402;SDS011;11874;48.228;11.684;2022-11-20T01:32:12;2.67;;;2.42;;
23402;SDS011;11874;48.228;11.684;2022-11-20T01:34:40;3.25;;;2.55;;
23402;SDS011;11874;48.228;11.684;2022-11-20T01:37:08;4.38;;;3.08;;
23402;SDS011;11874;48.228;11.684;2022-11-20T01:39:37;4.28;;;2.50;;
23402;SDS011;11874;48.228;11.684;2022-11-20T01:42:05;3.40;;;2.85;;
23402;SDS011;11874;48.228;11.684;2022-11-20T01:44:53;4.45;;;2.88;;
23402;SDS011;11874;48.228;11.684;2022-11-20T01:47:24;5.82;;;3.38;;
23402;SDS011;11874;48.228;11.684;2022-11-20T01:49:56;2.75;;;2.50;;
23402;SDS011;11874;48.228;11.684;2022-11-20T01:52:30;4.03;;;2.75;;
23402;SDS011;11874;48.228;11.684;2022-11-20T01:55:05;2.55;;;2.35;;
23402;SDS011;11874;48.228;11.684;2022-11-20T01:57:34;2.95;;;2.60;;
23402;SDS011;11874;48.228;11.684;2022-11-20T02:00:04;5.18;;;2.67;;
23402;SDS011;11874;48.228;11.684;2022-11-20T02:02:34;4.22;;;2.83;;
23402;SDS011;11874;48.228;11.684;2022-11-20T02:05:04;4.05;;;2.88;;
23402;SDS011;11874;48.228;11.684;2022-11-20T02:07:39;4.43;;;2.70;;
23402;SDS011;11874;48.228;11.684;2022-11-20T02:10:09;3.60;;;2.72;;
23402;SDS011;11874;48.228;11.684;2022-11-20T02:12:38;2.90;;;2.42;;
23402;SDS011;11874;48.228;11.684;2022-11-20T02:15:23;2.95;;;2.35;;
23402;SDS011;11874;48.228;11.684;2022-11-20T02:17:55;3.22;;;2.30;;
23402;SDS011;11874;48.228;11.684;2022-11-20T02:20:23;3.03;;;2.50;;
23402;SDS011;11874;48.228;11.684;2022-11-20T02:22:54;5.50;;;2.42;;
23402;SDS011;11874;48.228;11.684;2022-11-20T02:25:26;3.70;;;2.50;;
23402;SDS011;11874;48.228;11.684;2022-11-20T02:27:56;3.53;;;2.70;;
23402;SDS011;11874;48.228;11.684;2022-11-20T02:30:24;3.08;;;2.65;;
23402;SDS011;11874;48.228;11.684;2022-11-20T02:32:51;5.20;;;3.03;;
23402;SDS011;11874;48.228;11.684;2022-11-20T02:38:08;2.97;;;2.47;;
23402;SDS011;11874;48.228;11.684;2022-11-20T02:40:37;4.43;;;2.45;;
23402;SDS011;11874;48.228;11.684;2022-11-20T02:43:05;6.03;;;2.70;;
23402;SDS011;11874;48.228;11.684;2022-11-20T02:45:33;8.25;;;2.85;;
23402;SDS011;11874;48.228;11.684;2022-11-20T02:48:01;4.88;;;2.97;;
23402;SDS011;11874;48.228;11.684;2022-11-20T02:50:29;4.35;;;2.70;;
23402;SDS011;11874;48.228;11.684;2022-11-20T02:52:57;3.78;;;2.58;;
23402;SDS011;11874;48.228;11.684;2022-11-20T02:55:25;3.15;;;2.38;;
23402;SDS011;11874;48.228;11.684;2022-11-20T02:57:54;3.67;;;2.42;;
23402;SDS011;11874;48.228;11.684;2022-11-20T03:00:22;3.08;;;2.72;;
23402;SDS011;11874;48.228;11.684;2022-11-20T03:02:49;3.97;;;2.90;;
23402;SDS011;11874;48.228;11.684;2022-11-20T03:05:17;2.83;;;2.40;;
23402;SDS011;11874;48.228;11.684;2022-11-20T03:07:45;3.60;;;2.80;;
23402;SDS011;11874;48.228;11.684;2022-11-20T03:10:13;5.50;;;2.80;;
23402;SDS011;11874;48.228;11.684;2022-11-20T03:12:41;5.20;;;2.83;;
23402;SDS011;11874;48.228;11.684;2022-11-20T03:15:10;3.70;;;2.58;;
23402;SDS011;11874;48.228;11.684;2022-11-20T03:17:38;3.20;;;2.90;;
23402;SDS011;11874;48.228;11.684;2022-11-20T03:20:07;4.30;;;3.08;;
23402;SDS011;11874;48.228;11.684;2022-11-20T03:22:35;4.18;;;3.03;;
23402;SDS011;11874;48.228;11.684;2022-11-20T03:25:04;5.45;;;2.92;;
23402;SDS011;11874;48.228;11.684;2022-11-20T03:27:32;3.00;;;2.70;;
23402;SDS011;11874;48.228;11.684;2022-11-20T03:30:01;5.45;;;2.83;;
23402;SDS011;11874;48.228;11.684;2022-11-20T03:32:31;4.72;;;3.08;;
23402;SDS011;11874;48.228;11.684;2022-11-20T03:34:58;3.60;;;3.15;;
23402;SDS011;11874;48.228;11.684;2022-11-20T03:37:26;5.45;;;2.83;;
23402;SDS011;11874;48.228;11.684;2022-11-20T03:39:54;4.30;;;2.35;;
23402;SDS011;11874;48.228;11.684;2022-11-20T03:42:22;2.58;;;2.13;;
23402;SDS011;11874;48.228;11.684;2022-11-20T03:45:07;3.25;;;2.30;;
23402;SDS011;11874;48.228;11.684;2022-11-20T03:47:37;3.67;;;2.53;;
23402;SDS011;11874;48.228;11.684;2022-11-20T03:50:05;4.82;;;2.72;;
23402;SDS011;11874;48.228;11.684;2022-11-20T03:52:34;5.20;;;2.70;;
23402;SDS011;11874;48.228;11.684;2022-11-20T03:55:01;5.38;;;2.60;;
23402;SDS011;11874;48.228;11.684;2022-11-20T03:57:30;3.22;;;2.50;;
23402;SDS011;11874;48.228;11.684;2022-11-20T03:59:58;2.28;;;2.03;;
23402;SDS011;11874;48.228;11.684;2022-11-20T04:02:26;3.40;;;2.20;;
23402;SDS011;11874;48.228;11.684;2022-11-20T04:04:55;3.15;;;2.05;;
23402;SDS011;11874;48.228;11.684;2022-11-20T04:07:23;3.08;;;2.20;;
23402;SDS011;11874;48.228;11.684;2022-11-20T04:09:50;3.70;;;2.10;;
23402;SDS011;11874;48.228;11.684;2022-11-20T04:12:18;2.72;;;1.92;;
23402;SDS011;11874;48.228;11.684;2022-11-20T04:14:46;3.33;;;2.53;;
23402;SDS011;11874;48.228;11.684;2022-11-20T04:17:14;2.75;;;2.10;;
23402;SDS011;11874;48.228;11.684;2022-11-20T04:19:42;2.60;;;2.17;;
23402;SDS011;11874;48.228;11.684;2022-11-20T04:22:11;3.95;;;2.58;;
23402;SDS011;11874;48.228;11.684;2022-11-20T04:24:39;2.95;;;2.35;;
23402;SDS011;11874;48.228;11.684;2022-11-20T04:27:07;2.60;;;2.40;;
23402;SDS011;11874;48.228;11.684;2022-11-20T04:29:34;2.00;;;1.80;;
23402;SDS011;11874;48.228;11.684;2022-11-20T04:32:02;3.03;;;2.28;;
23402;SDS011;11874;48.228;11.684;2022-11-20T04:34:30;3.38;;;2.28;;
23402;SDS011;11874;48.228;11.684;2022-11-20T04:36:58;2.40;;;1.88;;
23402;SDS011;11874;48.228;11.684;2022-11-20T04:39:27;2.45;;;2.00;;
23402;SDS011;11874;48.228;11.684;2022-11-20T04:41:55;2.30;;;2.10;;
23402;SDS011;11874;48.228;11.684;2022-11-20T04:44:37;4.20;;;2.17;;
23402;SDS011;11874;48.228;11.684;2022-11-20T04:47:05;3.78;;;2.00;;
23402;SDS011;11874;48.228;11.684;2022-11-20T04:49:33;2.70;;;2.08;;
23402;SDS011;11874;48.228;11.684;2022-11-20T04:52:01;6.40;;;2.30;;
23402;SDS011;11874;48.228;11.684;2022-11-20T04:54:30;2.35;;;2.15;;
23402;SDS011;11874;48.228;11.684;2022-11-20T04:56:58;1.63;;;1.52;;
23402;SDS011;11874;48.228;11.684;2022-11-20T04:59:26;2.05;;;1.88;;
23402;SDS011;11874;48.228;11.684;2022-11-20T05:01:54;2.35;;;1.90;;
23402;SDS011;11874;48.228;11.684;2022-11-20T05:04:22;3.92;;;2.30;;
23402;SDS011;11874;48.228;11.684;2022-11-20T05:06:50;3.13;;;2.17;;
23402;SDS011;11874;48.228;11.684;2022-11-20T05:09:18;3.03;;;2.35;;
23402;SDS011;11874;48.228;11.684;2022-11-20T05:11:47;3.60;;;2.00;;
23402;SDS011;11874;48.228;11.684;2022-11-20T05:14:16;4.22;;;2.20;;
23402;SDS011;11874;48.228;11.684;2022-11-20T05:16:44;3.40;;;2.45;;
23402;SDS011;11874;48.228;11.684;2022-11-20T05:19:12;3.33;;;2.17;;
23402;SDS011;11874;48.228;11.684;2022-11-20T05:21:40;3.92;;;2.50;;
23402;SDS011;11874;48.228;11.684;2022-11-20T05:24:08;6.07;;;2.92;;
23402;SDS011;11874;48.228;11.684;2022-11-20T05:26:36;2.63;;;1.95;;
23402;SDS011;11874;48.228;11.684;2022-11-20T05:29:05;3.00;;;2.30;;
23402;SDS011;11874;48.228;11.684;2022-11-20T05:31:33;3.00;;;2.10;;
23402;SDS011;11874;48.228;11.684;2022-11-20T05:34:02;2.50;;;2.30;;
23402;SDS011;11874;48.228;11.684;2022-11-20T05:36:30;4.00;;;2.47;;
23402;SDS011;11874;48.228;11.684;2022-11-20T05:38:57;2.97;;;2.50;;
23402;SDS011;11874;48.228;11.684;2022-11-20T05:41:27;4.35;;;2.15;;
23402;SDS011;11874;48.228;11.684;2022-11-20T05:43:55;2.35;;;2.10;;
23402;SDS011;11874;48.228;11.684;2022-11-20T05:46:26;3.75;;;1.95;;
23402;SDS011;11874;48.228;11.684;2022-11-20T05:48:55;2.85;;;1.90;;
23402;SDS011;11874;48.228;11.684;2022-11-20T05:51:23;2.00;;;1.80;;
23402;SDS011;11874;48.228;11.684;2022-11-20T05:53:52;2.22;;;1.75;;
23402;SDS011;11874;48.228;11.684;2022-11-20T05:56:20;3.50;;;2.20;;
23402;SDS011;11874;48.228;11.684;2022-11-20T05:58:49;4.03;;;2.20;;
23402;SDS011;11874;48.228;11.684;2022-11-20T06:01:18;3.80;;;2.00;;
23402;SDS011;11874;48.228;11.684;2022-11-20T06:03:48;2.63;;;2.00;;
23402;SDS011;11874;48.228;11.684;2022-11-20T06:06:17;2.45;;;2.20;;
23402;SDS011;11874;48.228;11.684;2022-11-20T06:08:46;2.22;;;2.00;;
23402;SDS011;11874;48.228;11.684;2022-11-20T06:11:14;2.90;;;2.28;;
23402;SDS011;11874;48.228;11.684;2022-11-20T06:13:43;3.05;;;2.42;;
23402;SDS011;11874;48.228;11.684;2022-11-20T06:16:12;3.05;;;2.63;;
23402;SDS011;11874;48.228;11.684;2022-11-20T06:18:41;3.38;;;2.35;;
23402;SDS011;11874;48.228;11.684;2022-11-20T06:21:11;2.33;;;2.10;;
23402;SDS011;11874;48.228;11.684;2022-11-20T06:23:40;3.58;;;2.25;;
23402;SDS011;11874;48.228;11.684;2022-11-20T06:26:09;2.35;;;1.80;;
23402;SDS011;11874;48.228;11.684;2022-11-20T06:28:38;2.55;;;1.98;;
23402;SDS011;11874;48.228;11.684;2022-11-20T06:31:07;2.42;;;2.17;;
23402;SDS011;11874;48.228;11.684;2022-11-20T06:33:37;2.97;;;2.10;;
23402;SDS011;11874;48.228;11.684;2022-11-20T06:36:05;2.42;;;1.98;;
23402;SDS011;11874;48.228;11.684;2022-11-20T06:38:37;3.15;;;2.53;;
23402;SDS011;11874;48.228;11.684;2022-11-20T06:41:06;2.70;;;2.38;;
23402;SDS011;11874;48.228;11.684;2022-11-20T06:43:37;2.75;;;2.00;;
23402;SDS011;11874;48.228;11.684;2022-11-20T06:46:05;2.17;;;1.88;;
23402;SDS011;11874;48.228;11.684;2022-11-20T06:48:33;3.95;;;2.40;;
23402;SDS011;11874;48.228;11.684;2022-11-20T06:51:02;2.95;;;1.83;;
23402;SDS011;11874;48.228;11.684;2022-11-20T06:53:30;2.20;;;1.83;;
23402;SDS011;11874;48.228;11.684;2022-11-20T06:55:59;2.35;;;2.08;;
23402;SDS011;11874;48.228;11.684;2022-11-20T06:58:28;2.88;;;2.22;;
23402;SDS011;11874;48.228;11.684;2022-11-20T07:00:57;2.58;;;1.95;;
23402;SDS011;11874;48.228;11.684;2022-11-20T07:03:26;2.75;;;1.88;;
23402;SDS011;11874;48.228;11.684;2022-11-20T07:05:54;4.03;;;2.35;;
23402;SDS011;11874;48.228;11.684;2022-11-20T07:08:23;1.77;;;1.65;;
23402;SDS011;11874;48.228;11.684;2022-11-20T07:10:51;2.33;;;1.63;;
23402;SDS011;11874;48.228;11.684;2022-11-20T07:13:20;2.67;;;1.67;;
23402;SDS011;11874;48.228;11.684;2022-11-20T07:15:48;2.55;;;1.85;;
23402;SDS011;11874;48.228;11.684;2022-11-20T07:18:16;2.13;;;1.77;;
23402;SDS011;11874;48.228;11.684;2022-11-20T07:20:44;2.85;;;1.63;;
23402;SDS011;11874;48.228;11.684;2022-11-20T07:23:12;3.25;;;1.73;;
23402;SDS011;11874;48.228;11.684;2022-11-20T07:25:40;1.65;;;1.55;;
23402;SDS011;11874;48.228;11.684;2022-11-20T07:28:07;2.78;;;1.60;;
23402;SDS011;11874;48.228;11.684;2022-11-20T07:30:38;2.30;;;1.60;;
23402;SDS011;11874;48.228;11.684;2022-11-20T07:33:06;2.85;;;1.55;;
23402;SDS011;11874;48.228;11.684;2022-11-20T07:35:34;1.40;;;1.30;;
23402;SDS011;11874;48.228;11.684;2022-11-20T07:38:03;2.40;;;1.70;;
23402;SDS011;11874;48.228;11.684;2022-11-20T07:40:30;2.67;;;1.73;;
23402;SDS011;11874;48.228;11.684;2022-11-20T07:42:58;2.17;;;1.70;;
23402;SDS011;11874;48.228;11.684;2022-11-20T07:45:26;2.22;;;1.67;;
23402;SDS011;11874;48.228;11.684;2022-11-20T07:47:55;2.10;;;1.70;;
23402;SDS011;11874;48.228;11.684;2022-11-20T07:50:23;1.90;;;1.70;;
23402;SDS011;11874;48.228;11.684;2022-11-20T07:52:51;2.28;;;1.65;;
23402;SDS011;11874;48.228;11.684;2022-11-20T07:55:19;1.98;;;1.70;;
23402;SDS011;11874;48.228;11.684;2022-11-20T07:57:53;3.50;;;2.08;;
23402;SDS011;11874;48.228;11.684;2022-11-20T08:00:22;2.20;;;1.70;;
23402;SDS011;11874;48.228;11.684;2022-11-20T08:02:50;2.35;;;1.75;;
23402;SDS011;11874;48.228;11.684;2022-11-20T08:05:19;2.30;;;1.73;;
23402;SDS011;11874;48.228;11.684;2022-11-20T08:07:48;2.03;;;1.83;;
23402;SDS011;11874;48.228;11.684;2022-11-20T08:10:16;2.22;;;2.03;;
23402;SDS011;11874;48.228;11.684;2022-11-20T08:12:44;2.58;;;2.38;;
23402;SDS011;11874;48.228;11.684;2022-11-20T08:15:30;2.13;;;1.92;;
23402;SDS011;11874;48.228;11.684;2022-11-20T08:18:02;3.47;;;1.92;;
23402;SDS011;11874;48.228;11.684;2022-11-20T08:20:52;2.60;;;1.95;;
23402;SDS011;11874;48.228;11.684;2022-11-20T08:23:20;2.20;;;1.77;;
23402;SDS011;11874;48.228;11.684;2022-11-20T08:25:50;3.42;;;1.98;;
23402;SDS011;11874;48.228;11.684;2022-11-20T08:28:18;3.08;;;2.42;;
23402;SDS011;11874;48.228;11.684;2022-11-20T08:30:48;2.25;;;1.98;;
23402;SDS011;11874;48.228;11.684;2022-11-20T08:33:16;2.60;;;2.30;;
23402;SDS011;11874;48.228;11.684;2022-11-20T08:35:45;2.47;;;2.22;;
23402;SDS011;11874;48.228;11.684;2022-11-20T08:38:14;2.10;;;1.90;;
23402;SDS011;11874;48.228;11.684;2022-11-20T08:40:42;2.95;;;2.00;;
23402;SDS011;11874;48.228;11.684;2022-11-20T08:43:31;2.65;;;2.30;;
23402;SDS011;11874;48.228;11.684;2022-11-20T08:45:59;3.45;;;1.90;;
23402;SDS011;11874;48.228;11.684;2022-11-20T08:48:27;2.40;;;2.10;;
23402;SDS011;11874;48.228;11.684;2022-11-20T08:50:57;2.97;;;2.40;;
23402;SDS011;11874;48.228;11.684;2022-11-20T08:53:27;3.20;;;2.22;;
23402;SDS011;11874;48.228;11.684;2022-11-20T08:55:56;2.80;;;2.03;;
23402;SDS011;11874;48.228;11.684;2022-11-20T08:58:24;3.00;;;2.53;;
23402;SDS011;11874;48.228;11.684;2022-11-20T09:00:53;2.55;;;1.90;;
23402;SDS011;11874;48.228;11.684;2022-11-20T09:03:21;2.10;;;1.90;;
23402;SDS011;11874;48.228;11.684;2022-11-20T09:05:56;3.83;;;2.08;;
23402;SDS011;11874;48.228;11.684;2022-11-20T09:08:25;3.92;;;2.40;;
23402;SDS011;11874;48.228;11.684;2022-11-20T09:10:56;2.38;;;2.05;;
23402;SDS011;11874;48.228;11.684;2022-11-20T09:13:24;4.03;;;2.20;;
23402;SDS011;11874;48.228;11.684;2022-11-20T09:15:53;2.70;;;2.10;;
23402;SDS011;11874;48.228;11.684;2022-11-20T09:18:22;2.70;;;2.33;;
23402;SDS011;11874;48.228;11.684;2022-11-20T09:20:50;2.67;;;2.10;;
23402;SDS011;11874;48.228;11.684;2022-11-20T09:23:18;2.78;;;2.15;;
23402;SDS011;11874;48.228;11.684;2022-11-20T09:25:47;3.50;;;1.80;;
23402;SDS011;11874;48.228;11.684;2022-11-20T09:28:15;2.78;;;2.00;;
23402;SDS011;11874;48.228;11.684;2022-11-20T09:30:44;3.08;;;1.90;;
23402;SDS011;11874;48.228;11.684;2022-11-20T09:33:12;2.95;;;2.30;;
23402;SDS011;11874;48.228;11.684;2022-11-20T09:35:40;2.50;;;1.95;;
23402;SDS011;11874;48.228;11.684;2022-11-20T09:38:09;3.83;;;1.92;;
23402;SDS011;11874;48.228;11.684;2022-11-20T09:40:38;2.95;;;1.90;;
23402;SDS011;11874;48.228;11.684;2022-11-20T09:43:13;1.70;;;1.60;;
23402;SDS011;11874;48.228;11.684;2022-11-20T09:45:55;2.70;;;1.50;;
23402;SDS011;11874;48.228;11.684;2022-11-20T09:48:32;1.80;;;1.65;;
23402;SDS011;11874;48.228;11.684;2022-11-20T09:51:12;2.72;;;1.98;;
23402;SDS011;11874;48.228;11.684;2022-11-20T09:53:53;2.05;;;1.83;;
23402;SDS011;11874;48.228;11.684;2022-11-20T09:56:33;2.30;;;1.92;;
23402;SDS011;11874;48.228;11.684;2022-11-20T09:59:05;4.95;;;2.33;;
23402;SDS011;11874;48.228;11.684;2022-11-20T10:01:35;1.85;;;1.67;;
23402;SDS011;11874;48.228;11.684;2022-11-20T10:04:09;4.80;;;2.47;;
23402;SDS011;11874;48.228;11.684;2022-11-20T10:06:44;2.60;;;2.30;;
23402;SDS011;11874;48.228;11.684;2022-11-20T10:09:38;2.55;;;1.88;;
23402;SDS011;11874;48.228;11.684;2022-11-20T10:12:12;2.80;;;2.10;;
23402;SDS011;11874;48.228;11.684;2022-11-20T10:14:52;3.53;;;2.30;;
23402;SDS011;11874;48.228;11.684;2022-11-20T10:17:33;3.78;;;1.90;;
23402;SDS011;11874;48.228;11.684;2022-11-20T10:20:19;2.22;;;1.88;;
23402;SDS011;11874;48.228;11.684;2022-11-20T10:22:59;2.65;;;2.08;;
23402;SDS011;11874;48.228;11.684;2022-11-20T10:25:51;2.45;;;1.70;;
23402;SDS011;11874;48.228;11.684;2022-11-20T10:28:30;4.82;;;1.50;;
23402;SDS011;11874;48.228;11.684;2022-11-20T10:31:23;2.13;;;1.77;;
23402;SDS011;11874;48.228;11.684;2022-11-20T10:33:56;3.90;;;1.65;;
23402;SDS011;11874;48.228;11.684;2022-11-20T10:36:47;1.60;;;1.50;;
23402;SDS011;11874;48.228;11.684;2022-11-20T10:39:22;1.77;;;1.35;;
23402;SDS011;11874;48.228;11.684;2022-11-20T10:41:55;1.90;;;1.55;;
23402;SDS011;11874;48.228;11.684;2022-11-20T10:44:26;2.50;;;1.52;;
23402;SDS011;11874;48.228;11.684;2022-11-20T10:47:14;1.50;;;1.40;;
23402;SDS011;11874;48.228;11.684;2022-11-20T10:49:43;1.75;;;1.42;;
23402;SDS011;11874;48.228;11.684;2022-11-20T10:52:17;5.07;;;1.52;;
23402;SDS011;11874;48.228;11.684;2022-11-20T10:54:54;2.47;;;1.50;;
23402;SDS011;11874;48.228;11.684;2022-11-20T10:57:35;2.30;;;1.40;;
23402;SDS011;11874;48.228;11.684;2022-11-20T11:00:14;1.92;;;1.20;;
23402;SDS011;11874;48.228;11.684;2022-11-20T11:02:46;2.00;;;1.35;;
23402;SDS011;11874;48.228;11.684;2022-11-20T11:07:54;2.92;;;1.00;;
23402;SDS011;11874;48.228;11.684;2022-11-20T11:10:24;1.40;;;0.98;;
23402;SDS011;11874;48.228;11.684;2022-11-20T11:12:56;2.85;;;1.00;;
23402;SDS011;11874;48.228;11.684;2022-11-20T11:15:25;2.60;;;1.15;;
23402;SDS011;11874;48.228;11.684;2022-11-20T11:17:56;3.08;;;1.52;;
23402;SDS011;11874;48.228;11.684;2022-11-20T11:20:24;1.30;;;1.20;;
23402;SDS011;11874;48.228;11.684;2022-11-20T11:22:54;1.13;;;1.02;;
23402;SDS011;11874;48.228;11.684;2022-11-20T11:25:27;2.70;;;1.40;;
23402;SDS011;11874;48.228;11.684;2022-11-20T11:27:57;1.58;;;1.35;;
23402;SDS011;11874;48.228;11.684;2022-11-20T11:30:26;1.75;;;1.27;;
23402;SDS011;11874;48.228;11.684;2022-11-20T11:33:04;1.20;;;1.10;;
23402;SDS011;11874;48.228;11.684;2022-11-20T11:35:33;3.13;;;1.25;;
23402;SDS011;11874;48.228;11.684;2022-11-20T11:38:06;1.70;;;1.10;;
23402;SDS011;11874;48.228;11.684;2022-11-20T11:40:40;3.33;;;1.10;;
23402;SDS011;11874;48.228;11.684;2022-11-20T11:43:16;1.88;;;1.30;;
23402;SDS011;11874;48.228;11.684;2022-11-20T11:46:03;2.55;;;1.42;;
23402;SDS011;11874;48.228;11.684;2022-11-20T11:48:46;1.58;;;1.10;;
23402;SDS011;11874;48.228;11.684;2022-11-20T11:51:22;2.90;;;1.30;;
23402;SDS011;11874;48.228;11.684;2022-11-20T11:53:52;0.95;;;0.90;;
23402;SDS011;11874;48.228;11.684;2022-11-20T11:56:20;2.65;;;1.15;;
23402;SDS011;11874;48.228;11.684;2022-11-20T11:58:50;1.90;;;1.20;;
23402;SDS011;11874;48.228;11.684;2022-11-20T12:01:24;3.17;;;1.50;;
23402;SDS011;11874;48.228;11.684;2022-11-20T12:04:02;2.35;;;1.90;;
23402;SDS011;11874;48.228;11.684;2022-11-20T12:06:34;6.43;;;1.50;;
23402;SDS011;11874;48.228;11.684;2022-11-20T12:09:08;1.03;;;0.93;;
23402;SDS011;11874;48.228;11.684;2022-11-20T12:11:38;3.30;;;1.30;;
23402;SDS011;11874;48.228;11.684;2022-11-20T12:14:14;1.08;;;0.98;;
23402;SDS011;11874;48.228;11.684;2022-11-20T12:16:45;20.08;;;1.50;;
23402;SDS011;11874;48.228;11.684;2022-11-20T12:19:15;1.55;;;1.20;;
23402;SDS011;11874;48.228;11.684;2022-11-20T12:21:46;0.90;;;0.90;;
23402;SDS011;11874;48.228;11.684;2022-11-20T12:24:36;1.10;;;1.00;;
23402;SDS011;11874;48.228;11.684;2022-11-20T12:27:16;1.00;;;1.00;;
23402;SDS011;11874;48.228;11.684;2022-11-20T12:30:14;1.30;;;1.00;;
23402;SDS011;11874;48.228;11.684;2022-11-20T12:32:52;1.65;;;1.05;;
23402;SDS011;11874;48.228;11.684;2022-11-20T12:35:44;1.25;;;1.15;;
23402;SDS011;11874;48.228;11.684;2022-11-20T12:38:41;1.52;;;1.25;;
23402;SDS011;11874;48.228;11.684;2022-11-20T12:41:21;1.00;;;1.00;;
23402;SDS011;11874;48.228;11.684;2022-11-20T12:44:19;2.95;;;1.02;;
23402;SDS011;11874;48.228;11.684;2022-11-20T12:47:22;1.50;;;1.20;;
23402;SDS011;11874;48.228;11.684;2022-11-20T12:50:00;1.67;;;1.23;;
23402;SDS011;11874;48.228;11.684;2022-11-20T12:52:38;1.42;;;1.30;;
23402;SDS011;11874;48.228;11.684;2022-11-20T12:55:14;2.60;;;1.33;;
23402;SDS011;11874;48.228;11.684;2022-11-20T12:57:50;1.65;;;1.10;;
23402;SDS011;11874;48.228;11.684;2022-11-20T13:00:22;2.03;;;1.13;;
23402;SDS011;11874;48.228;11.684;2022-11-20T13:03:14;1.23;;;1.00;;
23402;SDS011;11874;48.228;11.684;2022-11-20T13:05:55;9.52;;;2.20;;
23402;SDS011;11874;48.228;11.684;2022-11-20T13:08:29;2.78;;;1.00;;
23402;SDS011;11874;48.228;11.684;2022-11-20T13:11:02;3.90;;;1.30;;
23402;SDS011;11874;48.228;11.684;2022-11-20T13:13:40;1.95;;;1.20;;
23402;SDS011;11874;48.228;11.684;2022-11-20T13:16:14;2.50;;;1.20;;
23402;SDS011;11874;48.228;11.684;2022-11-20T13:18:46;1.63;;;1.17;;
23402;SDS011;11874;48.228;11.684;2022-11-20T13:21:15;2.03;;;1.42;;
23402;SDS011;11874;48.228;11.684;2022-11-20T13:23:46;3.63;;;1.40;;
23402;SDS011;11874;48.228;11.684;2022-11-20T13:26:15;1.60;;;1.27;;
23402;SDS011;11874;48.228;11.684;2022-11-20T13:28:46;2.35;;;1.33;;
23402;SDS011;11874;48.228;11.684;2022-11-20T13:31:30;2.08;;;1.42;;
23402;SDS011;11874;48.228;11.684;2022-11-20T13:34:00;2.00;;;1.27;;
23402;SDS011;11874;48.228;11.684;2022-11-20T13:36:30;1.42;;;1.30;;
23402;SDS011;11874;48.228;11.684;2022-11-20T13:39:02;1.58;;;1.05;;
23402;SDS011;11874;48.228;11.684;2022-11-20T13:41:31;1.00;;;1.00;;
23402;SDS011;11874;48.228;11.684;2022-11-20T13:44:06;1.88;;;1.42;;
23402;SDS011;11874;48.228;11.684;2022-11-20T13:46:40;2.35;;;1.42;;
23402;SDS011;11874;48.228;11.684;2022-11-20T13:49:14;5.38;;;1.83;;
23402;SDS011;11874;48.228;11.684;2022-11-20T13:51:46;1.67;;;1.33;;
23402;SDS011;11874;48.228;11.684;2022-11-20T13:54:25;1.55;;;1.40;;
23402;SDS011;11874;48.228;11.684;2022-11-20T13:57:24;1.80;;;1.50;;
23402;SDS011;11874;48.228;11.684;2022-11-20T14:00:09;3.55;;;1.63;;
23402;SDS011;11874;48.228;11.684;2022-11-20T14:02:39;1.60;;;1.30;;
23402;SDS011;11874;48.228;11.684;2022-11-20T14:05:13;2.15;;;1.75;;
23402;SDS011;11874;48.228;11.684;2022-11-20T14:07:46;2.83;;;2.00;;
23402;SDS011;11874;48.228;11.684;2022-11-20T14:10:21;2.70;;;1.50;;
23402;SDS011;11874;48.228;11.684;2022-11-20T14:12:57;4.18;;;2.42;;
23402;SDS011;11874;48.228;11.684;2022-11-20T14:15:26;5.03;;;3.00;;
23402;SDS011;11874;48.228;11.684;2022-11-20T14:17:56;2.55;;;1.92;;
23402;SDS011;11874;48.228;11.684;2022-11-20T14:20:25;3.47;;;2.00;;
23402;SDS011;11874;48.228;11.684;2022-11-20T14:22:55;3.83;;;2.55;;
23402;SDS011;11874;48.228;11.684;2022-11-20T14:25:25;2.88;;;1.50;;
23402;SDS011;11874;48.228;11.684;2022-11-20T14:27:54;3.05;;;1.67;;
23402;SDS011;11874;48.228;11.684;2022-11-20T14:30:25;2.88;;;1.52;;
23402;SDS011;11874;48.228;11.684;2022-11-20T14:32:54;3.90;;;1.90;;
23402;SDS011;11874;48.228;11.684;2022-11-20T14:35:28;1.70;;;1.60;;
23402;SDS011;11874;48.228;11.684;2022-11-20T14:37:57;1.77;;;1.45;;
23402;SDS011;11874;48.228;11.684;2022-11-20T14:40:28;2.65;;;1.73;;
23402;SDS011;11874;48.228;11.684;2022-11-20T14:42:58;7.78;;;2.30;;
23402;SDS011;11874;48.228;11.684;2022-11-20T14:45:26;2.95;;;2.13;;
23402;SDS011;11874;48.228;11.684;2022-11-20T14:47:55;4.13;;;2.53;;
23402;SDS011;11874;48.228;11.684;2022-11-20T14:50:25;2.15;;;1.75;;
23402;SDS011;11874;48.228;11.684;2022-11-20T14:52:54;3.13;;;1.67;;
23402;SDS011;11874;48.228;11.684;2022-11-20T14:55:28;2.45;;;1.70;;
23402;SDS011;11874;48.228;11.684;2022-11-20T14:57:58;3.47;;;1.60;;
23402;SDS011;11874;48.228;11.684;2022-11-20T15:00:28;2.20;;;1.50;;
23402;SDS011;11874;48.228;11.684;2022-11-20T15:02:58;1.40;;;1.30;;